Medina, North Dakota
Current Conditions -  °F | °C
As of 6:56 AM on Friday 24 Oct 2014 (Local Time) from KJMS Reporting Station
Clear Clear  
Wind Chill: 40°   Ceiling: Unl
Heat Index: 40°   Visibility: 10mi
Dew Point: 35°   Wind: 3mph
Humidity: 83%   Direction: 190°S
Pressure: 29.79"   Gusts: NA
Location:  46.89°N, 99.3°W
Report Text: KJMS 241156Z AUTO 19003KT 10SM CLR 04/02 A2979 RMK AO2 SLP095 T00440017 10111 20033 56001
Loading
Personal Weather Stations






























Interactive Weather Map
Tropical Storm Tracking
New forecast layout! Learn more

10-Day Weather Forecast

Advertisements
Track Severe Weather on mobile